createdAt,value
2023-05-20T00:00:19.093Z,16.74
2023-05-20T00:01:21.734Z,16.71
2023-05-20T00:02:24.559Z,16.75
2023-05-20T00:03:27.260Z,16.73
2023-05-20T00:04:29.723Z,16.72
2023-05-20T00:05:31.940Z,16.71
2023-05-20T00:06:34.040Z,16.70
2023-05-20T00:07:36.321Z,16.70
2023-05-20T00:08:38.524Z,16.69
2023-05-20T00:09:41.811Z,16.70
2023-05-20T00:10:44.117Z,16.70
2023-05-20T00:11:46.399Z,16.67
2023-05-20T00:12:48.703Z,16.64
2023-05-20T00:13:51.103Z,16.63
2023-05-20T00:14:55.228Z,16.61
2023-05-20T00:15:57.592Z,16.59
2023-05-20T00:17:00.055Z,16.59
2023-05-20T00:18:03.534Z,16.56
2023-05-20T00:19:05.993Z,16.56
2023-05-20T00:20:09.387Z,16.56
2023-05-20T00:21:11.784Z,16.54
2023-05-20T00:22:13.964Z,16.49
2023-05-20T00:23:16.176Z,16.51
2023-05-20T00:24:18.763Z,16.49
2023-05-20T00:25:20.908Z,16.44
2023-05-20T00:26:23.307Z,16.48
2023-05-20T00:27:27.924Z,16.49
2023-05-20T00:28:30.481Z,16.49
2023-05-20T00:29:33.485Z,16.51
2023-05-20T00:30:35.872Z,16.54
2023-05-20T00:31:38.439Z,16.55
2023-05-20T00:32:40.919Z,16.57
2023-05-20T00:33:43.177Z,16.54
2023-05-20T00:35:58.708Z,16.67
2023-05-20T00:37:01.092Z,16.50
2023-05-20T00:38:03.487Z,16.49
2023-05-20T00:39:05.588Z,16.48
2023-05-20T00:40:09.282Z,16.50
2023-05-20T00:41:11.725Z,16.50
2023-05-20T00:42:24.985Z,16.49
2023-05-20T00:43:27.378Z,16.50
2023-05-20T00:44:29.712Z,16.49
2023-05-20T00:45:32.375Z,16.45
2023-05-20T00:46:35.289Z,16.42
2023-05-20T00:47:38.264Z,16.44
2023-05-20T00:48:42.955Z,16.40
2023-05-20T00:49:49.625Z,16.41
2023-05-20T00:50:51.327Z,16.39
2023-05-20T00:51:53.832Z,16.41
2023-05-20T00:52:56.195Z,16.43
2023-05-20T00:53:58.631Z,16.46
2023-05-20T00:55:00.781Z,16.48
2023-05-20T00:56:04.640Z,16.49
2023-05-20T00:57:08.829Z,16.51
2023-05-20T00:58:11.818Z,16.51
2023-05-20T00:59:15.008Z,16.53
2023-05-20T01:00:17.487Z,16.54
2023-05-20T01:01:19.785Z,16.50
2023-05-20T01:02:23.038Z,16.52
2023-05-20T01:03:25.979Z,16.52
2023-05-20T01:04:28.482Z,16.46
2023-05-20T01:05:30.864Z,16.50
2023-05-20T01:06:33.260Z,16.50
2023-05-20T01:07:35.481Z,16.48
2023-05-20T01:08:37.836Z,16.48
2023-05-20T01:09:40.775Z,16.47
2023-05-20T01:10:46.793Z,16.45
2023-05-20T01:11:52.997Z,16.44
2023-05-20T01:12:59.013Z,16.42
2023-05-20T01:14:04.901Z,16.35
2023-05-20T01:15:14.163Z,16.34
2023-05-20T01:16:18.075Z,16.34
2023-05-20T01:17:21.485Z,16.30
2023-05-20T01:18:27.856Z,16.29
2023-05-20T01:19:43.946Z,16.31
2023-05-20T01:20:49.509Z,16.25
2023-05-20T01:21:53.631Z,16.26
2023-05-20T01:22:56.961Z,16.25
2023-05-20T01:23:59.761Z,16.29
2023-05-20T01:25:02.220Z,16.27
2023-05-20T01:26:05.660Z,16.25
2023-05-20T01:27:10.186Z,16.30
2023-05-20T01:28:12.698Z,16.25
2023-05-20T01:29:15.061Z,16.24
2023-05-20T01:30:17.888Z,16.23
2023-05-20T01:31:25.171Z,16.23
2023-05-20T01:32:37.797Z,16.24
2023-05-20T01:33:43.416Z,16.22
2023-05-20T01:34:52.014Z,16.22
2023-05-20T01:35:55.115Z,16.21
2023-05-20T01:36:57.874Z,16.19
2023-05-20T01:38:00.531Z,16.17
2023-05-20T01:39:02.848Z,16.14
2023-05-20T01:40:08.235Z,16.15
2023-05-20T01:41:12.157Z,16.15
2023-05-20T01:42:15.569Z,16.14
2023-05-20T01:43:17.880Z,16.12
2023-05-20T01:44:20.923Z,16.08
2023-05-20T01:45:25.016Z,16.09
2023-05-20T01:46:27.401Z,16.09
2023-05-20T01:47:29.694Z,16.10
2023-05-20T01:48:32.073Z,16.09
2023-05-20T01:49:34.736Z,16.08
2023-05-20T01:50:37.783Z,16.09
2023-05-20T01:51:40.225Z,16.05
2023-05-20T01:52:42.858Z,16.07
2023-05-20T01:53:44.958Z,16.07
2023-05-20T01:54:47.755Z,16.06
2023-05-20T01:55:50.232Z,16.05
2023-05-20T01:56:52.853Z,16.02
2023-05-20T01:57:57.468Z,16.02
2023-05-20T01:59:00.677Z,16.01
2023-05-20T02:00:03.847Z,16.00
2023-05-20T02:01:08.142Z,15.99
2023-05-20T02:02:11.069Z,15.98
2023-05-20T02:03:13.519Z,15.96
2023-05-20T02:04:16.096Z,15.94
2023-05-20T02:05:18.476Z,15.95
2023-05-20T02:06:20.763Z,15.94
2023-05-20T02:07:23.202Z,15.94
2023-05-20T02:08:27.825Z,15.91
2023-05-20T02:09:30.237Z,15.87
2023-05-20T02:10:32.620Z,15.88
2023-05-20T02:11:34.949Z,15.90
2023-05-20T02:12:37.250Z,15.87
2023-05-20T02:13:40.017Z,15.84
2023-05-20T02:15:53.754Z,15.95
2023-05-20T02:16:56.136Z,15.83
2023-05-20T02:17:58.521Z,15.84
2023-05-20T02:19:00.705Z,15.86
2023-05-20T02:20:04.580Z,15.88
2023-05-20T02:21:08.751Z,15.87
2023-05-20T02:22:11.664Z,15.85
2023-05-20T02:23:13.877Z,15.83
2023-05-20T02:24:17.075Z,15.82
2023-05-20T02:25:19.273Z,15.83
2023-05-20T02:26:22.147Z,15.81
2023-05-20T02:27:24.684Z,15.84
2023-05-20T02:28:27.389Z,15.80
2023-05-20T02:29:30.802Z,15.79
2023-05-20T02:30:33.125Z,15.78
2023-05-20T02:31:35.218Z,15.79
2023-05-20T02:32:38.781Z,15.81
2023-05-20T02:33:41.968Z,15.82
2023-05-20T02:34:44.060Z,15.81
2023-05-20T02:35:46.454Z,15.77
2023-05-20T02:36:49.414Z,15.76
2023-05-20T02:37:53.122Z,15.75
2023-05-20T02:38:55.515Z,15.73
2023-05-20T02:39:58.124Z,15.69
2023-05-20T02:41:00.241Z,15.68
2023-05-20T02:42:02.820Z,15.67
2023-05-20T02:43:05.564Z,15.69
2023-05-20T02:44:08.960Z,15.69
2023-05-20T02:45:11.193Z,15.66
2023-05-20T02:46:14.561Z,15.65
2023-05-20T02:47:16.909Z,15.62
2023-05-20T02:48:19.397Z,15.62
2023-05-20T02:49:21.723Z,15.60
2023-05-20T02:50:23.985Z,15.58
2023-05-20T02:51:26.412Z,15.57
2023-05-20T02:52:28.916Z,15.55
2023-05-20T02:53:31.333Z,15.55
2023-05-20T02:54:34.555Z,15.49
2023-05-20T02:55:37.379Z,15.47
2023-05-20T02:56:39.779Z,15.49
2023-05-20T02:57:42.514Z,15.47
2023-05-20T02:58:45.388Z,15.47
2023-05-20T02:59:48.035Z,15.46
2023-05-20T03:00:50.331Z,15.45
2023-05-20T03:01:52.816Z,15.43
2023-05-20T03:02:55.038Z,15.40
2023-05-20T03:03:57.409Z,15.40
2023-05-20T03:04:59.892Z,15.37
2023-05-20T03:06:02.172Z,15.38
2023-05-20T03:07:06.603Z,15.38
2023-05-20T03:08:09.857Z,15.34
2023-05-20T03:09:12.189Z,15.34
2023-05-20T03:10:15.462Z,15.31
2023-05-20T03:11:17.701Z,15.31
2023-05-20T03:12:19.936Z,15.30
2023-05-20T03:13:22.217Z,15.29
2023-05-20T03:14:24.559Z,15.27
2023-05-20T03:15:26.942Z,15.27
2023-05-20T03:16:29.375Z,15.31
2023-05-20T03:17:33.358Z,15.32
2023-05-20T03:18:35.698Z,15.34
2023-05-20T03:19:38.097Z,15.33
2023-05-20T03:20:40.399Z,15.34
2023-05-20T03:21:43.144Z,15.36
2023-05-20T03:22:45.480Z,15.37
2023-05-20T03:23:47.640Z,15.37
2023-05-20T03:24:50.081Z,15.36
2023-05-20T03:25:52.852Z,15.38
2023-05-20T03:26:55.413Z,15.38
2023-05-20T03:27:58.262Z,15.39
2023-05-20T03:29:00.533Z,15.35
2023-05-20T03:30:03.889Z,15.33
2023-05-20T03:31:06.915Z,15.34
2023-05-20T03:32:10.846Z,15.33
2023-05-20T03:33:13.448Z,15.31
2023-05-20T03:34:15.927Z,15.29
2023-05-20T03:35:19.667Z,15.31
2023-05-20T03:36:22.861Z,15.29
2023-05-20T03:37:25.752Z,15.32
2023-05-20T03:38:27.934Z,15.31
2023-05-20T03:39:30.256Z,15.31
2023-05-20T03:40:32.716Z,15.29
2023-05-20T03:41:35.318Z,15.29
2023-05-20T03:42:38.231Z,15.28
2023-05-20T03:43:40.757Z,15.30
2023-05-20T03:44:42.870Z,15.27
2023-05-20T03:45:45.121Z,15.27
2023-05-20T03:46:49.774Z,15.27
2023-05-20T03:47:52.775Z,15.24
2023-05-20T03:48:55.163Z,15.25
2023-05-20T03:49:57.510Z,15.24
2023-05-20T03:51:00.149Z,15.27
2023-05-20T03:52:02.426Z,15.28
2023-05-20T03:53:04.780Z,15.31
2023-05-20T03:54:08.954Z,15.34
2023-05-20T03:55:11.324Z,15.34
2023-05-20T03:56:13.851Z,15.37
2023-05-20T03:57:17.077Z,15.40
2023-05-20T03:58:19.665Z,15.42
2023-05-20T03:59:22.315Z,15.44
2023-05-20T04:00:25.228Z,15.45
2023-05-20T04:01:27.728Z,15.43
2023-05-20T04:02:30.394Z,15.43
2023-05-20T04:03:33.011Z,15.40
2023-05-20T04:04:35.917Z,15.41
2023-05-20T04:05:39.092Z,15.41
2023-05-20T04:06:43.359Z,15.42
2023-05-20T04:07:45.617Z,15.38
2023-05-20T04:08:48.370Z,15.41
2023-05-20T04:09:50.653Z,15.43
2023-05-20T04:10:57.054Z,15.44
2023-05-20T04:11:59.392Z,15.45
2023-05-20T04:13:01.596Z,15.45
2023-05-20T04:14:03.982Z,15.45
2023-05-20T04:15:06.974Z,15.43
2023-05-20T04:16:11.150Z,15.44
2023-05-20T04:17:13.252Z,15.44
2023-05-20T04:18:15.226Z,15.45
2023-05-20T04:19:17.681Z,15.44
2023-05-20T04:20:20.043Z,15.45
2023-05-20T04:21:23.700Z,15.45
2023-05-20T04:22:26.474Z,15.44
2023-05-20T04:23:28.602Z,15.44
2023-05-20T04:24:30.858Z,15.45
2023-05-20T04:25:33.397Z,15.44
2023-05-20T04:26:35.736Z,15.46
2023-05-20T04:27:38.062Z,15.49
2023-05-20T04:28:40.602Z,15.50
2023-05-20T04:29:43.528Z,15.51
2023-05-20T04:30:45.828Z,15.57
2023-05-20T04:31:48.228Z,15.60
2023-05-20T04:32:53.597Z,15.65
2023-05-20T04:33:56.969Z,15.69
2023-05-20T04:35:00.289Z,15.72
2023-05-20T04:36:03.432Z,15.75
2023-05-20T04:37:05.788Z,15.76
2023-05-20T04:38:08.649Z,15.78
2023-05-20T04:39:11.017Z,15.79
2023-05-20T04:40:13.900Z,15.77
2023-05-20T04:41:16.504Z,15.79
2023-05-20T04:42:19.558Z,15.81
2023-05-20T04:43:21.885Z,15.83
2023-05-20T04:44:24.545Z,15.86
2023-05-20T04:45:27.545Z,15.87
2023-05-20T04:46:29.937Z,15.88
2023-05-20T04:47:33.807Z,15.88
2023-05-20T04:48:36.225Z,15.88
2023-05-20T04:49:38.469Z,15.91
2023-05-20T04:50:42.557Z,15.93
2023-05-20T04:51:44.901Z,15.95
2023-05-20T04:52:47.383Z,15.96
2023-05-20T04:53:49.702Z,15.97
2023-05-20T04:54:52.804Z,15.99
2023-05-20T04:55:55.778Z,16.00
2023-05-20T04:56:59.165Z,16.02
2023-05-20T04:58:01.698Z,16.04
2023-05-20T04:59:04.134Z,16.07
2023-05-20T05:01:17.931Z,16.22
2023-05-20T05:02:20.625Z,16.13
2023-05-20T05:03:22.720Z,16.17
2023-05-20T05:04:25.394Z,16.19
2023-05-20T05:05:27.694Z,16.22
2023-05-20T05:06:30.005Z,16.23
2023-05-20T05:07:33.939Z,16.26
2023-05-20T05:08:36.158Z,16.28
2023-05-20T05:09:38.519Z,16.31
2023-05-20T05:10:41.230Z,16.31
2023-05-20T05:11:44.467Z,16.34
2023-05-20T05:12:47.477Z,16.35
2023-05-20T05:13:51.156Z,16.35
2023-05-20T05:14:54.788Z,16.38
2023-05-20T05:15:59.962Z,16.41
2023-05-20T05:17:02.919Z,16.44
2023-05-20T05:18:05.813Z,16.47
2023-05-20T05:19:11.916Z,16.50
2023-05-20T05:20:14.997Z,16.54
2023-05-20T05:21:17.757Z,16.59
2023-05-20T05:22:21.932Z,16.59
2023-05-20T05:23:24.708Z,16.63
2023-05-20T05:24:27.237Z,16.66
2023-05-20T05:25:29.639Z,16.67
2023-05-20T05:26:33.602Z,16.70
2023-05-20T05:27:37.266Z,16.71
2023-05-20T05:28:41.558Z,16.72
2023-05-20T05:29:45.140Z,16.73
2023-05-20T05:30:48.638Z,16.76
2023-05-20T05:31:51.255Z,16.78
2023-05-20T05:32:54.546Z,16.80
2023-05-20T05:33:57.521Z,16.82
2023-05-20T05:34:59.860Z,16.85
2023-05-20T05:36:03.736Z,16.87
2023-05-20T05:37:06.128Z,16.90
2023-05-20T05:38:09.075Z,16.91
2023-05-20T05:39:11.879Z,16.93
2023-05-20T05:40:17.051Z,16.95
2023-05-20T05:41:20.012Z,16.96
2023-05-20T05:42:22.787Z,16.98
2023-05-20T05:43:25.133Z,17.00
2023-05-20T05:44:27.562Z,17.03
2023-05-20T05:45:30.687Z,17.06
2023-05-20T05:46:34.517Z,17.08
2023-05-20T05:47:38.068Z,17.09
2023-05-20T05:48:40.515Z,17.11
2023-05-20T05:49:42.929Z,17.12
2023-05-20T05:50:46.215Z,17.15
2023-05-20T05:51:51.522Z,17.15
2023-05-20T05:52:54.274Z,17.18
2023-05-20T05:53:56.442Z,17.18
2023-05-20T05:54:58.707Z,17.21
2023-05-20T05:56:01.257Z,17.24
2023-05-20T05:57:06.388Z,17.27
2023-05-20T05:58:08.405Z,17.27
2023-05-20T05:59:10.766Z,17.30
2023-05-20T06:00:14.312Z,17.32
2023-05-20T06:01:22.095Z,17.35
2023-05-20T06:02:24.628Z,17.37
2023-05-20T06:03:27.473Z,17.41
2023-05-20T06:04:29.985Z,17.43
2023-05-20T06:05:33.216Z,17.47
2023-05-20T06:06:35.831Z,17.50
2023-05-20T06:07:38.721Z,17.53
2023-05-20T06:08:40.948Z,17.56
2023-05-20T06:09:44.109Z,17.58
2023-05-20T06:10:50.064Z,17.60
2023-05-20T06:11:52.596Z,17.62
2023-05-20T06:12:56.530Z,17.64
2023-05-20T06:14:02.392Z,17.67
2023-05-20T06:15:05.799Z,17.68
2023-05-20T06:16:08.732Z,17.71
2023-05-20T06:17:11.553Z,17.74
2023-05-20T06:18:14.562Z,17.78
2023-05-20T06:19:17.452Z,17.80
2023-05-20T06:20:20.564Z,17.83
2023-05-20T06:21:23.465Z,17.85
2023-05-20T06:22:26.453Z,17.88
2023-05-20T06:23:28.853Z,17.89
2023-05-20T06:24:34.406Z,17.89
2023-05-20T06:25:37.163Z,17.91
2023-05-20T06:26:39.388Z,17.92
2023-05-20T06:27:42.097Z,17.94
2023-05-20T06:28:46.072Z,17.96
2023-05-20T06:29:48.988Z,17.99
2023-05-20T06:30:51.316Z,18.01
2023-05-20T06:31:53.602Z,18.05
2023-05-20T06:32:56.049Z,18.07
2023-05-20T06:33:58.640Z,18.12
2023-05-20T06:35:01.492Z,18.15
2023-05-20T06:36:03.858Z,18.19
2023-05-20T06:37:07.208Z,18.21
2023-05-20T06:38:10.731Z,18.26
2023-05-20T06:39:13.320Z,18.30
2023-05-20T06:40:17.518Z,18.33
2023-05-20T06:41:19.731Z,18.36
2023-05-20T06:42:22.487Z,18.40
2023-05-20T06:43:26.732Z,18.43
2023-05-20T06:44:31.114Z,18.47
2023-05-20T06:45:38.463Z,18.52
2023-05-20T06:46:42.718Z,18.56
2023-05-20T06:47:47.143Z,18.60
2023-05-20T06:48:49.433Z,18.66
2023-05-20T06:49:52.499Z,18.69
2023-05-20T06:50:54.710Z,18.74
2023-05-20T06:51:57.028Z,18.75
2023-05-20T06:53:00.178Z,18.78
2023-05-20T06:54:02.580Z,18.83
2023-05-20T06:55:06.482Z,18.86
2023-05-20T06:56:10.524Z,18.89
2023-05-20T06:57:12.803Z,18.96
2023-05-20T06:58:16.670Z,19.00
2023-05-20T06:59:18.988Z,19.04
2023-05-20T07:00:21.434Z,19.06
2023-05-20T07:01:23.774Z,19.10
2023-05-20T07:02:26.617Z,19.10
2023-05-20T07:03:29.138Z,19.15
2023-05-20T07:04:32.075Z,19.17
2023-05-20T07:05:34.303Z,19.21
2023-05-20T07:06:36.989Z,19.23
2023-05-20T07:07:39.113Z,19.25
2023-05-20T07:08:41.884Z,19.29
2023-05-20T07:09:44.874Z,19.31
2023-05-20T07:10:47.395Z,19.33
2023-05-20T07:11:51.629Z,19.33
2023-05-20T07:12:54.314Z,19.35
2023-05-20T07:13:56.699Z,19.36
2023-05-20T07:15:00.299Z,19.38
2023-05-20T07:16:04.803Z,19.41
2023-05-20T07:17:07.842Z,19.45
2023-05-20T07:18:10.095Z,19.46
2023-05-20T07:19:12.984Z,19.48
2023-05-20T07:20:16.660Z,19.52
2023-05-20T07:21:19.777Z,19.54
2023-05-20T07:22:40.735Z,19.58
2023-05-20T07:23:50.446Z,19.62
2023-05-20T07:24:52.725Z,19.66
2023-05-20T07:25:55.529Z,19.70
2023-05-20T07:26:58.617Z,19.71
2023-05-20T07:28:01.604Z,19.75
2023-05-20T07:29:04.958Z,19.79
2023-05-20T07:30:09.299Z,19.84
2023-05-20T07:31:12.917Z,19.89
2023-05-20T07:32:17.175Z,19.93
2023-05-20T07:33:20.803Z,19.97
2023-05-20T07:34:24.245Z,20.02
2023-05-20T07:35:26.960Z,20.06
2023-05-20T07:36:30.126Z,20.09
2023-05-20T07:37:34.344Z,20.11
2023-05-20T07:38:39.491Z,20.16
2023-05-20T07:39:43.723Z,20.16
2023-05-20T07:40:46.286Z,20.19
2023-05-20T07:41:51.527Z,20.20
2023-05-20T07:42:54.988Z,20.22
2023-05-20T07:43:57.307Z,20.25
2023-05-20T07:44:59.679Z,20.27
2023-05-20T07:46:03.286Z,20.30
2023-05-20T07:47:05.529Z,20.31
2023-05-20T07:48:09.168Z,20.34
2023-05-20T07:49:11.905Z,20.35
2023-05-20T07:50:15.070Z,20.37
2023-05-20T07:51:17.436Z,20.37
2023-05-20T07:52:19.847Z,20.37
2023-05-20T07:53:22.161Z,20.39
2023-05-20T07:54:24.846Z,20.39
2023-05-20T07:55:28.687Z,20.40
2023-05-20T07:56:32.071Z,20.41
2023-05-20T07:57:34.748Z,20.43
2023-05-20T07:58:37.358Z,20.45
2023-05-20T07:59:39.891Z,20.49
2023-05-20T08:00:43.766Z,20.52
2023-05-20T08:01:46.657Z,20.55
2023-05-20T08:02:50.863Z,20.60
2023-05-20T08:03:55.740Z,20.62
2023-05-20T08:04:59.980Z,20.66
2023-05-20T08:06:02.790Z,20.71
2023-05-20T08:07:06.237Z,20.74
2023-05-20T08:08:13.117Z,20.76
2023-05-20T08:09:17.273Z,20.76
2023-05-20T08:10:21.743Z,20.77
2023-05-20T08:11:24.732Z,20.80
2023-05-20T08:12:27.357Z,20.81
2023-05-20T08:13:29.672Z,20.82
2023-05-20T08:14:31.873Z,20.83
2023-05-20T08:15:36.123Z,20.86
2023-05-20T08:16:38.634Z,20.86
2023-05-20T08:17:41.745Z,20.88
2023-05-20T08:18:44.912Z,20.91
2023-05-20T08:19:48.346Z,20.93
2023-05-20T08:20:51.018Z,20.95
2023-05-20T08:21:53.211Z,20.98
2023-05-20T08:22:55.483Z,20.98
2023-05-20T08:23:57.760Z,20.99
2023-05-20T08:25:00.044Z,20.99
2023-05-20T08:26:02.556Z,21.01
2023-05-20T08:27:06.694Z,21.01
2023-05-20T08:28:09.064Z,21.04
2023-05-20T08:29:12.305Z,21.07
2023-05-20T08:30:14.890Z,21.10
2023-05-20T08:31:17.948Z,21.12
2023-05-20T08:32:21.370Z,21.13
2023-05-20T08:33:24.641Z,21.13
2023-05-20T08:34:27.424Z,21.14
2023-05-20T08:35:30.770Z,21.14
2023-05-20T08:36:34.406Z,21.13
2023-05-20T08:37:37.717Z,21.16
2023-05-20T08:38:40.207Z,21.15
2023-05-20T08:39:43.567Z,21.17
2023-05-20T08:40:47.877Z,21.16
2023-05-20T08:41:50.827Z,21.17
2023-05-20T08:42:53.357Z,21.20
2023-05-20T08:43:58.649Z,21.22
2023-05-20T08:45:02.357Z,21.26
2023-05-20T08:46:06.488Z,21.30
2023-05-20T08:47:10.261Z,21.33
2023-05-20T08:48:13.050Z,21.38
2023-05-20T08:49:15.325Z,21.44
2023-05-20T08:50:17.627Z,21.47
2023-05-20T08:51:21.692Z,21.51
2023-05-20T08:52:25.840Z,21.57
2023-05-20T08:53:28.136Z,21.60
2023-05-20T08:54:33.840Z,21.64
2023-05-20T08:55:44.924Z,21.67
2023-05-20T08:56:47.707Z,21.70
2023-05-20T08:57:50.689Z,21.72
2023-05-20T08:58:53.604Z,21.75
2023-05-20T08:59:55.900Z,21.76
2023-05-20T09:00:58.236Z,21.77
2023-05-20T09:02:01.009Z,21.77
2023-05-20T09:03:04.613Z,21.77
2023-05-20T09:04:06.921Z,21.78
2023-05-20T09:05:11.487Z,21.80
2023-05-20T09:06:17.455Z,21.82
2023-05-20T09:08:36.942Z,22.01
2023-05-20T09:09:39.143Z,21.90
2023-05-20T09:10:42.276Z,21.92
2023-05-20T09:11:45.100Z,21.94
2023-05-20T09:12:47.463Z,21.93
2023-05-20T09:13:50.162Z,21.96
2023-05-20T09:14:52.259Z,21.98
2023-05-20T09:15:54.932Z,22.02
2023-05-20T09:16:57.157Z,22.04
2023-05-20T09:18:00.577Z,22.08
2023-05-20T09:19:05.842Z,22.13
2023-05-20T09:20:10.142Z,22.15
2023-05-20T09:21:12.946Z,22.12
2023-05-20T09:22:15.666Z,22.14
2023-05-20T09:23:19.722Z,22.17
2023-05-20T09:24:25.863Z,22.17
2023-05-20T09:25:28.686Z,22.19
2023-05-20T09:26:31.243Z,22.20
2023-05-20T09:27:33.632Z,22.17
2023-05-20T09:28:35.862Z,22.16
2023-05-20T09:29:38.155Z,22.16
2023-05-20T09:30:42.422Z,22.15
2023-05-20T09:31:45.890Z,22.14
2023-05-20T09:32:57.277Z,22.12
2023-05-20T09:35:13.384Z,22.20
2023-05-20T09:36:16.636Z,22.10
2023-05-20T09:37:22.277Z,22.11
2023-05-20T09:38:25.256Z,22.14
2023-05-20T09:39:31.670Z,22.18
2023-05-20T09:40:34.375Z,22.22
2023-05-20T09:43:03.432Z,22.36
2023-05-20T09:44:06.281Z,22.29
2023-05-20T09:45:09.208Z,22.30
2023-05-20T09:46:13.706Z,22.29
2023-05-20T09:47:17.329Z,22.27
2023-05-20T09:48:19.903Z,22.26
2023-05-20T09:49:24.194Z,22.25
2023-05-20T09:50:27.944Z,22.25
2023-05-20T09:51:31.092Z,22.25
2023-05-20T09:52:35.735Z,22.29
2023-05-20T09:53:38.791Z,22.33
2023-05-20T09:54:42.468Z,22.37
2023-05-20T09:55:46.040Z,22.41
2023-05-20T09:56:49.104Z,22.42
2023-05-20T09:57:53.767Z,22.47
2023-05-20T09:58:58.701Z,22.49
2023-05-20T10:00:02.420Z,22.51
2023-05-20T10:01:06.737Z,22.52
2023-05-20T10:02:09.818Z,22.53
2023-05-20T10:03:12.639Z,22.54
2023-05-20T10:04:17.057Z,22.53
2023-05-20T10:05:29.332Z,22.52
2023-05-20T10:06:44.479Z,22.54
2023-05-20T10:08:16.207Z,22.56
2023-05-20T10:10:47.369Z,22.73
2023-05-20T10:12:08.493Z,22.61
2023-05-20T10:13:29.724Z,22.65
2023-05-20T10:14:35.519Z,22.67
2023-05-20T10:16:09.316Z,22.70
2023-05-20T10:17:27.670Z,22.71
2023-05-20T10:18:45.975Z,22.73
2023-05-20T10:19:48.558Z,22.75
2023-05-20T10:20:51.132Z,22.78
2023-05-20T10:21:58.308Z,22.77
2023-05-20T10:23:00.623Z,22.79
2023-05-20T10:24:07.130Z,22.83
2023-05-20T10:25:12.194Z,22.84
2023-05-20T10:26:15.064Z,22.90
2023-05-20T10:27:18.120Z,22.95
2023-05-20T10:28:31.693Z,22.97
2023-05-20T10:31:02.521Z,23.08
2023-05-20T10:32:04.890Z,22.97
2023-05-20T10:33:07.630Z,22.99
2023-05-20T10:35:24.249Z,23.14
2023-05-20T10:36:28.080Z,23.07
2023-05-20T10:37:33.158Z,23.10
2023-05-20T10:38:35.400Z,23.10
2023-05-20T10:39:38.197Z,23.08
2023-05-20T10:40:40.456Z,23.07
2023-05-20T10:41:42.848Z,23.07
2023-05-20T10:42:45.126Z,23.05
2023-05-20T10:43:47.338Z,23.07
2023-05-20T10:44:50.162Z,23.07
2023-05-20T10:45:54.635Z,23.06
2023-05-20T10:47:21.022Z,23.07
2023-05-20T10:48:08.016Z,23.08
2023-05-20T10:49:20.564Z,23.11
2023-05-20T10:51:46.363Z,23.27
2023-05-20T10:52:49.233Z,23.16
2023-05-20T10:53:55.569Z,23.16
2023-05-20T10:54:59.836Z,23.16
2023-05-20T10:56:03.692Z,23.17
2023-05-20T10:57:06.937Z,23.18
2023-05-20T10:58:10.137Z,23.21
2023-05-20T10:59:12.538Z,23.21
2023-05-20T11:00:16.676Z,23.23
2023-05-20T11:01:23.572Z,23.23
2023-05-20T11:02:27.155Z,23.22
2023-05-20T11:03:30.634Z,23.22
2023-05-20T11:04:33.312Z,23.20
2023-05-20T11:05:35.935Z,23.22
2023-05-20T11:06:38.030Z,23.22
2023-05-20T11:07:40.220Z,23.25
2023-05-20T11:08:43.076Z,23.28
2023-05-20T11:09:50.572Z,23.31
2023-05-20T11:10:55.577Z,23.34
2023-05-20T11:11:58.573Z,23.34
2023-05-20T11:13:02.143Z,23.36
2023-05-20T11:14:04.435Z,23.39
2023-05-20T11:15:07.324Z,23.41
2023-05-20T11:16:10.463Z,23.40
2023-05-20T11:17:12.578Z,23.42
2023-05-20T11:18:16.261Z,23.42
2023-05-20T11:19:19.502Z,23.44
2023-05-20T11:21:32.979Z,23.57
2023-05-20T11:22:35.223Z,23.48
2023-05-20T11:23:40.581Z,23.48
2023-05-20T11:24:42.956Z,23.52
2023-05-20T11:25:45.808Z,23.54
2023-05-20T11:26:48.072Z,23.58
2023-05-20T11:27:50.789Z,23.57
2023-05-20T11:28:53.018Z,23.56
2023-05-20T11:29:55.269Z,23.57
2023-05-20T11:30:57.589Z,23.57
2023-05-20T11:32:00.355Z,23.60
2023-05-20T11:33:03.838Z,23.59
2023-05-20T11:34:06.560Z,23.60
2023-05-20T11:36:31.042Z,23.68
2023-05-20T11:37:35.860Z,23.56
2023-05-20T11:38:40.661Z,23.56
2023-05-20T11:39:43.352Z,23.59
2023-05-20T11:40:54.139Z,23.60
2023-05-20T11:41:57.894Z,23.60
2023-05-20T11:43:01.366Z,23.60
2023-05-20T11:44:04.062Z,23.60
2023-05-20T11:45:08.554Z,23.60
2023-05-20T11:46:11.404Z,23.61
2023-05-20T11:47:13.693Z,23.62
2023-05-20T11:48:15.792Z,23.64
2023-05-20T11:49:18.524Z,23.65
2023-05-20T11:50:21.736Z,23.65
2023-05-20T11:51:26.391Z,23.64
2023-05-20T11:52:29.456Z,23.62
2023-05-20T11:53:31.759Z,23.59
2023-05-20T11:54:35.620Z,23.58
2023-05-20T11:55:58.550Z,23.59
2023-05-20T11:57:01.685Z,23.60
2023-05-20T11:58:03.899Z,23.61
2023-05-20T11:59:08.014Z,23.62
2023-05-20T12:00:11.028Z,23.63
2023-05-20T12:01:21.632Z,23.64
2023-05-20T12:02:17.852Z,23.67
2023-05-20T12:03:20.811Z,23.69
2023-05-20T12:04:23.270Z,23.72
2023-05-20T12:05:25.692Z,23.72
2023-05-20T12:06:27.918Z,23.70
2023-05-20T12:07:30.059Z,23.73
2023-05-20T12:08:32.340Z,23.76
2023-05-20T12:09:34.920Z,23.77
2023-05-20T12:10:37.757Z,23.80
2023-05-20T12:11:40.365Z,23.82
2023-05-20T12:12:44.417Z,23.84
2023-05-20T12:13:47.204Z,23.85
2023-05-20T12:14:50.532Z,23.85
2023-05-20T12:15:53.005Z,23.86
2023-05-20T12:16:55.323Z,23.87
2023-05-20T12:17:57.944Z,23.89
2023-05-20T12:19:00.944Z,23.90
2023-05-20T12:20:03.710Z,23.92
2023-05-20T12:21:06.100Z,23.90
2023-05-20T12:22:08.887Z,23.89
2023-05-20T12:23:11.179Z,23.88
2023-05-20T12:24:13.650Z,23.89
2023-05-20T12:25:18.755Z,23.87
2023-05-20T12:26:21.076Z,23.85
2023-05-20T12:27:23.922Z,23.84
2023-05-20T12:28:26.387Z,23.83
2023-05-20T12:29:28.929Z,23.79
2023-05-20T12:30:31.215Z,23.77
2023-05-20T12:31:34.863Z,23.77
2023-05-20T12:32:38.512Z,23.74
2023-05-20T12:33:40.811Z,23.74
2023-05-20T12:34:43.399Z,23.73
2023-05-20T12:35:45.599Z,23.76
2023-05-20T12:36:48.016Z,23.79
2023-05-20T12:37:50.735Z,23.79
2023-05-20T12:38:52.918Z,23.82
2023-05-20T12:39:56.283Z,23.78
2023-05-20T12:40:58.577Z,23.77
2023-05-20T12:42:01.438Z,23.74
2023-05-20T12:43:04.757Z,23.77
2023-05-20T12:44:07.567Z,23.75
2023-05-20T12:45:10.213Z,23.77
2023-05-20T12:46:13.109Z,23.79
2023-05-20T12:47:15.980Z,23.82
2023-05-20T12:48:18.716Z,23.85
2023-05-20T12:49:22.083Z,23.82
2023-05-20T12:50:24.594Z,23.80
2023-05-20T12:51:26.893Z,23.76
2023-05-20T12:52:29.123Z,23.77
2023-05-20T12:53:32.185Z,23.78
2023-05-20T12:54:34.547Z,23.78
2023-05-20T12:55:36.745Z,23.77
2023-05-20T12:56:39.049Z,23.77
2023-05-20T12:57:43.973Z,23.77
2023-05-20T12:58:46.218Z,23.79
2023-05-20T12:59:48.533Z,23.79
2023-05-20T13:00:50.834Z,23.82
2023-05-20T13:01:53.141Z,23.84
2023-05-20T13:02:55.486Z,23.85
2023-05-20T13:03:58.057Z,23.84
2023-05-20T13:05:00.478Z,23.83
2023-05-20T13:06:04.718Z,23.81
2023-05-20T13:07:07.000Z,23.80
2023-05-20T13:08:09.385Z,23.81
2023-05-20T13:09:12.174Z,23.84
2023-05-20T13:10:16.174Z,23.85
2023-05-20T13:11:18.570Z,23.86
2023-05-20T13:12:20.742Z,23.88
2023-05-20T13:13:24.217Z,23.90
2023-05-20T13:14:26.464Z,23.92
2023-05-20T13:15:28.761Z,23.92
2023-05-20T13:16:31.205Z,23.95
2023-05-20T13:17:34.089Z,23.97
2023-05-20T13:18:36.716Z,24.03
2023-05-20T13:19:39.420Z,24.05
2023-05-20T13:20:44.618Z,24.07
2023-05-20T13:21:47.485Z,24.07
2023-05-20T13:22:49.831Z,24.10
2023-05-20T13:23:51.935Z,24.10
2023-05-20T13:24:54.049Z,24.10
2023-05-20T13:25:56.767Z,24.08
2023-05-20T13:26:59.069Z,24.08
2023-05-20T13:28:01.243Z,24.07
2023-05-20T13:29:04.486Z,24.05
2023-05-20T13:30:07.842Z,24.05
2023-05-20T13:31:10.816Z,24.03
2023-05-20T13:32:13.148Z,24.04
2023-05-20T13:33:15.443Z,24.04
2023-05-20T13:34:17.700Z,24.02
2023-05-20T13:35:20.449Z,24.05
2023-05-20T13:36:23.174Z,24.06
2023-05-20T13:37:25.552Z,24.09
2023-05-20T13:38:27.750Z,24.12
2023-05-20T13:39:29.934Z,24.15
2023-05-20T13:40:32.431Z,24.14
2023-05-20T13:41:34.467Z,24.16
2023-05-20T13:42:36.809Z,24.18
2023-05-20T13:43:38.843Z,24.20
2023-05-20T13:44:41.632Z,24.18
2023-05-20T13:45:44.930Z,24.21
2023-05-20T13:46:47.329Z,24.21
2023-05-20T13:47:49.515Z,24.19
2023-05-20T13:48:52.260Z,24.21
2023-05-20T13:49:54.442Z,24.20
2023-05-20T13:50:56.612Z,24.17
2023-05-20T13:51:58.834Z,24.15